Time;durP1;ratioP1;P1;durP2;ratioP2;P2;SDS_P1;SDS_P2;PMS_P1;PMS_P2;Temp;Humidity;BMP_temperature;BMP_pressure;BME280_temperature;BME280_humidity;BME280_pressure;Samples;Min_cycle;Max_cycle;Signal;HPM_P1;HPM_P2
2022/03/19 00:02:24;;;;;;;0.00;0.00;;;;;25.30;100263.00;;;;5085970;28;20739;-82
2022/03/19 00:04:53;;;;;;;0.00;0.00;;;;;25.40;100260.00;;;;5102291;28;20123;-80
2022/03/19 00:07:23;;;;;;;0.00;0.00;;;;;25.40;100288.00;;;;5086651;28;20044;-77
2022/03/19 00:09:53;;;;;;;0.00;0.00;;;;;25.40;100274.00;;;;5102217;28;20522;-77
2022/03/19 00:12:22;;;;;;;0.00;0.00;;;;;25.50;100285.00;;;;5084183;28;20139;-77
2022/03/19 00:14:52;;;;;;;0.00;0.00;;;;;25.50;100275.00;;;;5085252;28;20051;-75
2022/03/19 00:17:21;;;;;;;0.00;0.00;;;;;25.50;100291.00;;;;5084998;28;20066;-79
2022/03/19 00:19:52;;;;;;;0.08;0.08;;;;;25.70;100286.00;;;;5086466;28;20511;-79
2022/03/19 00:22:21;;;;;;;0.00;0.00;;;;;25.80;100271.00;;;;5102339;28;20097;-75
2022/03/19 00:24:51;;;;;;;0.00;0.00;;;;;25.80;100275.00;;;;5085691;28;20052;-79
2022/03/19 00:27:20;;;;;;;0.00;0.00;;;;;25.80;100298.00;;;;5085716;28;20052;-78
2022/03/19 00:29:51;;;;;;;0.08;0.08;;;;;25.90;100299.00;;;;5087087;28;20051;-79
2022/03/19 00:32:21;;;;;;;0.00;0.00;;;;;25.90;100289.00;;;;5085209;28;20056;-76
2022/03/19 00:34:50;;;;;;;0.00;0.00;;;;;25.90;100298.00;;;;5086584;28;20039;-76
2022/03/19 00:37:20;;;;;;;0.00;0.00;;;;;25.90;100294.00;;;;5085925;28;20047;-76
2022/03/19 00:39:49;;;;;;;0.35;0.15;;;;;25.90;100300.00;;;;5086803;28;20052;-77
2022/03/19 00:42:18;;;;;;;0.00;0.00;;;;;25.80;100295.00;;;;5085822;28;20048;-76
2022/03/19 00:44:48;;;;;;;0.00;0.00;;;;;25.70;100303.00;;;;5086335;28;20052;-79
2022/03/19 00:47:17;;;;;;;0.00;0.00;;;;;25.60;100305.00;;;;5101778;28;20040;-76
2022/03/19 00:49:47;;;;;;;0.00;0.00;;;;;25.40;100302.00;;;;5084949;28;20060;-76
2022/03/19 00:52:17;;;;;;;0.00;0.00;;;;;25.30;100314.00;;;;5068049;28;20064;-76
2022/03/19 00:54:47;;;;;;;0.00;0.00;;;;;25.30;100309.00;;;;5084705;28;20064;-76
2022/03/19 00:57:17;;;;;;;0.20;0.20;;;;;25.20;100316.00;;;;5086709;28;20514;-78
2022/03/19 00:59:46;;;;;;;0.03;0.03;;;;;25.10;100319.00;;;;5087586;28;20047;-77
2022/03/19 01:02:15;;;;;;;1.45;1.35;;;;;25.10;100297.00;;;;5088109;28;20047;-76
2022/03/19 01:04:45;;;;;;;0.15;0.15;;;;;25.00;100330.00;;;;5087816;28;20032;-76
2022/03/19 01:07:15;;;;;;;0.00;0.00;;;;;25.00;100303.00;;;;5089724;28;20047;-77
2022/03/19 01:09:44;;;;;;;0.00;0.00;;;;;24.90;100295.00;;;;5089449;28;20040;-76
2022/03/19 01:12:13;;;;;;;0.00;0.00;;;;;24.90;100290.00;;;;5089212;28;20043;-76
2022/03/19 01:14:43;;;;;;;0.00;0.00;;;;;24.90;100295.00;;;;5112669;27;20074;-76
2022/03/19 01:17:12;;;;;;;0.00;0.00;;;;;24.80;100303.00;;;;5108384;28;20062;-76
2022/03/19 01:19:54;;;;;;;0.00;0.00;;;;;24.80;100293.00;;;;5108698;28;20058;-77
2022/03/19 01:22:25;;;;;;;0.20;0.20;;;;;24.70;100308.00;;;;5124679;27;20054;-77
2022/03/19 01:24:59;;;;;;;0.00;0.00;;;;;24.60;100290.00;;;;5108706;28;20088;-77
2022/03/19 01:27:28;;;;;;;0.00;0.00;;;;;24.60;100309.00;;;;5105479;28;20517;-77
2022/03/19 01:29:58;;;;;;;0.08;0.08;;;;;24.70;100299.00;;;;5108097;28;20048;-77
2022/03/19 01:32:28;;;;;;;0.00;0.00;;;;;24.70;100301.00;;;;5107972;28;20055;-78
2022/03/19 01:34:57;;;;;;;0.00;0.00;;;;;24.70;100290.00;;;;5107214;28;20047;-77
2022/03/19 01:37:27;;;;;;;0.17;0.08;;;;;24.70;100290.00;;;;5124327;27;20130;-77
2022/03/19 01:39:57;;;;;;;0.45;0.32;;;;;24.70;100284.00;;;;5107199;28;20082;-76
2022/03/19 01:42:29;;;;;;;0.00;0.00;;;;;24.70;100294.00;;;;5107832;28;20046;-76
2022/03/19 01:44:59;;;;;;;0.00;0.00;;;;;24.90;100284.00;;;;5124959;27;20181;-75
2022/03/19 01:47:30;;;;;;;0.00;0.00;;;;;24.90;100278.00;;;;5109332;28;20092;-74
2022/03/19 01:50:00;;;;;;;0.00;0.00;;;;;24.80;100294.00;;;;5109483;28;20071;-75
2022/03/19 01:52:32;;;;;;;0.00;0.00;;;;;24.70;100320.00;;;;5109001;28;20052;-76
2022/03/19 01:55:03;;;;;;;0.00;0.00;;;;;24.60;100308.00;;;;5108105;28;20047;-77
2022/03/19 01:57:37;;;;;;;0.00;0.00;;;;;24.50;100337.00;;;;5090923;28;20054;-76
2022/03/19 02:00:12;;;;;;;0.10;0.10;;;;;24.40;100339.00;;;;5123970;27;20043;-76
2022/03/19 02:02:43;;;;;;;0.00;0.00;;;;;24.30;100335.00;;;;5108527;28;20067;-76
2022/03/19 02:05:16;;;;;;;0.75;0.75;;;;;24.30;100347.00;;;;5124332;27;20047;-77
2022/03/19 02:07:48;;;;;;;0.00;0.00;;;;;24.30;100347.00;;;;5108491;28;20043;-77
2022/03/19 02:10:19;;;;;;;10.20;2.38;;;;;24.40;100370.00;;;;5107679;28;20537;-77
2022/03/19 02:12:50;;;;;;;0.00;0.00;;;;;24.30;100376.00;;;;5108588;28;20122;-77
2022/03/19 02:15:20;;;;;;;0.13;0.13;;;;;24.10;100369.00;;;;5108278;28;20056;-77
2022/03/19 02:17:51;;;;;;;0.43;0.38;;;;;24.10;100366.00;;;;5107312;28;20079;-77
2022/03/19 02:20:21;;;;;;;0.00;0.00;;;;;24.20;100372.00;;;;5108135;28;20135;-77
2022/03/19 02:25:47;;;;;;;0.00;0.00;;;;;24.20;100358.00;;;;5108737;28;20127;-77
2022/03/19 02:28:17;;;;;;;0.00;0.00;;;;;24.20;100365.00;;;;5108437;28;20095;-77
2022/03/19 02:30:47;;;;;;;0.10;0.10;;;;;24.20;100369.00;;;;5108628;28;20095;-77
2022/03/19 02:33:16;;;;;;;0.00;0.00;;;;;24.20;100376.00;;;;5108001;28;20036;-77
2022/03/19 02:35:47;;;;;;;0.00;0.00;;;;;24.40;100365.00;;;;5124208;27;20043;-77
2022/03/19 02:38:17;;;;;;;1.20;0.90;;;;;24.50;100399.00;;;;5107894;28;20521;-77
2022/03/19 02:40:46;;;;;;;0.00;0.00;;;;;24.60;100407.00;;;;5108395;28;20074;-76
2022/03/19 02:43:16;;;;;;;0.73;0.30;;;;;24.60;100391.00;;;;5107976;28;20153;-76
2022/03/19 02:45:48;;;;;;;0.20;0.20;;;;;24.70;100408.00;;;;5108093;28;20039;-76
2022/03/19 02:48:18;;;;;;;0.00;0.00;;;;;24.80;100404.00;;;;5106538;28;20051;-77
2022/03/19 02:50:48;;;;;;;0.00;0.00;;;;;25.00;100411.00;;;;5123619;27;20142;-77
2022/03/19 02:53:17;;;;;;;0.00;0.00;;;;;25.00;100431.00;;;;5108415;28;20040;-77
2022/03/19 02:55:47;;;;;;;0.00;0.00;;;;;25.00;100419.00;;;;5106072;28;20051;-77
2022/03/19 02:58:17;;;;;;;0.00;0.00;;;;;25.00;100412.00;;;;5107190;27;20695;-77
2022/03/19 03:00:46;;;;;;;0.00;0.00;;;;;25.00;100418.00;;;;5108092;28;20036;-76
2022/03/19 03:03:17;;;;;;;0.25;0.25;;;;;24.90;100413.00;;;;5108198;28;20039;-74
2022/03/19 03:05:46;;;;;;;0.32;0.22;;;;;24.80;100402.00;;;;5107490;28;20080;-75
2022/03/19 03:08:16;;;;;;;0.17;0.13;;;;;24.80;100405.00;;;;5108507;28;20070;-74
2022/03/19 03:10:46;;;;;;;0.00;0.00;;;;;24.60;100414.00;;;;5106964;28;20441;-75
2022/03/19 03:13:15;;;;;;;0.00;0.00;;;;;24.30;100406.00;;;;5107531;28;20047;-77
2022/03/19 03:15:45;;;;;;;0.00;0.00;;;;;24.20;100398.00;;;;5122497;27;20047;-79
2022/03/19 03:18:14;;;;;;;0.00;0.00;;;;;23.90;100404.00;;;;5106519;28;20051;-77
2022/03/19 03:20:43;;;;;;;0.35;0.28;;;;;23.80;100402.00;;;;5106742;28;20533;-77
2022/03/19 03:23:14;;;;;;;0.00;0.00;;;;;23.70;100389.00;;;;5106237;28;20406;-78
2022/03/19 03:25:44;;;;;;;0.00;0.00;;;;;23.60;100381.00;;;;5107065;28;20047;-77
2022/03/19 03:28:13;;;;;;;0.00;0.00;;;;;23.50;100374.00;;;;5105878;28;20071;-77
2022/03/19 03:30:43;;;;;;;0.00;0.00;;;;;23.40;100390.00;;;;5107307;28;20414;-77
2022/03/19 03:33:12;;;;;;;0.00;0.00;;;;;23.40;100397.00;;;;5106390;28;20035;-77
2022/03/19 03:35:42;;;;;;;0.00;0.00;;;;;23.40;100380.00;;;;5106785;28;20036;-77
2022/03/19 03:38:12;;;;;;;0.00;0.00;;;;;23.40;100373.00;;;;5107142;28;20040;-76
2022/03/19 03:40:41;;;;;;;0.00;0.00;;;;;23.40;100384.00;;;;5106066;28;20422;-77
2022/03/19 03:43:11;;;;;;;0.00;0.00;;;;;23.40;100378.00;;;;5122124;27;20067;-77
2022/03/19 03:45:40;;;;;;;0.05;0.05;;;;;23.30;100371.00;;;;5121618;27;20036;-76
2022/03/19 03:48:10;;;;;;;0.00;0.00;;;;;23.30;100380.00;;;;5105230;28;20537;-76
2022/03/19 03:50:40;;;;;;;0.00;0.00;;;;;23.30;100393.00;;;;5121288;27;20051;-76
2022/03/19 03:53:09;;;;;;;0.00;0.00;;;;;23.30;100389.00;;;;5107461;28;20032;-76
2022/03/19 03:55:39;;;;;;;0.00;0.00;;;;;23.20;100366.00;;;;5106918;28;20046;-77
2022/03/19 03:58:08;;;;;;;0.00;0.00;;;;;23.20;100386.00;;;;5122343;27;20470;-77
2022/03/19 04:00:38;;;;;;;0.00;0.00;;;;;23.20;100377.00;;;;5104884;28;20059;-77
2022/03/19 04:03:08;;;;;;;0.00;0.00;;;;;23.20;100361.00;;;;5106912;28;20040;-77
2022/03/19 04:05:37;;;;;;;0.00;0.00;;;;;23.20;100381.00;;;;5122095;28;20142;-77
2022/03/19 04:08:07;;;;;;;0.00;0.00;;;;;23.10;100357.00;;;;5105230;28;20047;-77
2022/03/19 04:10:36;;;;;;;0.00;0.00;;;;;23.10;100360.00;;;;5106072;28;20065;-77
2022/03/19 04:13:05;;;;;;;0.00;0.00;;;;;23.10;100375.00;;;;5105035;28;20047;-77
2022/03/19 04:15:35;;;;;;;0.00;0.00;;;;;23.10;100378.00;;;;5105874;28;20107;-77
2022/03/19 04:18:04;;;;;;;0.00;0.00;;;;;23.00;100385.00;;;;5122452;28;20076;-77
2022/03/19 04:20:34;;;;;;;0.00;0.00;;;;;23.00;100388.00;;;;5105056;28;20055;-77
2022/03/19 04:23:03;;;;;;;0.00;0.00;;;;;23.00;100406.00;;;;5106227;28;20047;-76
2022/03/19 04:25:33;;;;;;;0.00;0.00;;;;;23.00;100389.00;;;;5104940;28;20126;-77
2022/03/19 04:28:03;;;;;;;0.00;0.00;;;;;23.00;100398.00;;;;5104960;28;20109;-74
2022/03/19 04:30:32;;;;;;;0.00;0.00;;;;;22.90;100411.00;;;;5106251;28;20040;-77
2022/03/19 04:33:04;;;;;;;0.00;0.00;;;;;22.90;100395.00;;;;5105645;28;20074;-77
2022/03/19 04:38:23;;;;;;;0.00;0.00;;;;;22.80;100402.00;;;;5109702;27;20196;-77
2022/03/19 04:40:53;;;;;;;0.00;0.00;;;;;22.80;100408.00;;;;5110102;28;20108;-77
2022/03/19 04:43:23;;;;;;;0.00;0.00;;;;;22.70;100411.00;;;;5125870;27;20044;-77
2022/03/19 04:45:52;;;;;;;0.00;0.00;;;;;22.60;100411.00;;;;5109737;28;20051;-77
2022/03/19 04:48:22;;;;;;;0.00;0.00;;;;;22.60;100431.00;;;;5109413;28;20457;-77
2022/03/19 04:50:51;;;;;;;0.00;0.00;;;;;22.60;100421.00;;;;5107708;28;20047;-77
2022/03/19 04:53:21;;;;;;;0.00;0.00;;;;;22.60;100396.00;;;;5109716;28;20039;-77
2022/03/19 04:55:50;;;;;;;0.00;0.00;;;;;22.50;100390.00;;;;5108639;28;20039;-77
2022/03/19 04:58:20;;;;;;;0.00;0.00;;;;;22.60;100392.00;;;;5109572;28;20073;-77
2022/03/19 05:00:49;;;;;;;0.00;0.00;;;;;22.60;100385.00;;;;5109918;28;20536;-77
2022/03/19 05:03:19;;;;;;;0.00;0.00;;;;;22.50;100368.00;;;;5109222;28;20043;-76
2022/03/19 05:05:49;;;;;;;0.00;0.00;;;;;22.50;100382.00;;;;5109753;28;20561;-76
2022/03/19 05:08:18;;;;;;;0.00;0.00;;;;;22.50;100387.00;;;;5109842;28;20096;-76
2022/03/19 05:13:35;;;;;;;0.00;0.00;;;;;22.60;100389.00;;;;5109085;28;20055;-77
2022/03/19 05:16:05;;;;;;;0.17;0.17;;;;;22.60;100388.00;;;;5108727;28;20078;-77
2022/03/19 05:18:35;;;;;;;1.67;0.73;;;;;22.70;100382.00;;;;5107998;28;20101;-77
2022/03/19 05:21:05;;;;;;;0.10;0.03;;;;;22.70;100379.00;;;;5109950;28;20046;-76
2022/03/19 05:23:35;;;;;;;0.00;0.00;;;;;22.80;100401.00;;;;5109450;28;20437;-76
2022/03/19 05:26:04;;;;;;;0.00;0.00;;;;;22.70;100409.00;;;;5109303;28;20043;-77
2022/03/19 05:28:35;;;;;;;0.10;0.10;;;;;22.70;100399.00;;;;5126400;27;20434;-76
2022/03/19 05:31:25;;;;;;;0.00;0.00;;;;;22.70;100378.00;;;;5109335;28;20043;-76
2022/03/19 05:36:43;;;;;;;0.00;0.00;;;;;22.80;100396.00;;;;5108668;28;20118;-76
2022/03/19 05:39:13;;;;;;;0.00;0.00;;;;;22.70;100387.00;;;;5109120;28;20040;-77
2022/03/19 05:41:43;;;;;;;0.00;0.00;;;;;22.80;100394.00;;;;5124216;27;20131;-77
2022/03/19 05:44:12;;;;;;;0.00;0.00;;;;;22.80;100400.00;;;;5108899;28;20036;-77
2022/03/19 05:46:41;;;;;;;0.00;0.00;;;;;22.80;100385.00;;;;5123587;27;20040;-77
2022/03/19 05:49:11;;;;;;;0.00;0.00;;;;;22.70;100394.00;;;;5108637;28;20900;-77
2022/03/19 05:51:41;;;;;;;0.13;0.13;;;;;22.70;100418.00;;;;5109811;28;20070;-77
2022/03/19 05:54:10;;;;;;;0.00;0.00;;;;;22.70;100403.00;;;;5124804;27;20047;-76
2022/03/19 05:56:41;;;;;;;0.10;0.10;;;;;22.70;100388.00;;;;5107543;28;20058;-76
2022/03/19 05:59:11;;;;;;;0.00;0.00;;;;;22.70;100398.00;;;;5123009;27;20545;-76
2022/03/19 06:01:42;;;;;;;0.00;0.00;;;;;22.70;100398.00;;;;5108799;28;20035;-76
2022/03/19 06:04:11;;;;;;;0.00;0.00;;;;;22.70;100415.00;;;;5109066;28;20059;-78
2022/03/19 06:06:42;;;;;;;0.00;0.00;;;;;22.60;100409.00;;;;5108942;28;20518;-76
2022/03/19 06:09:12;;;;;;;0.00;0.00;;;;;22.60;100421.00;;;;5107442;28;20527;-75
2022/03/19 06:11:43;;;;;;;0.00;0.00;;;;;22.60;100393.00;;;;5107645;28;20082;-77
2022/03/19 06:14:13;;;;;;;0.13;0.10;;;;;22.60;100410.00;;;;5124386;27;20043;-77
2022/03/19 06:16:43;;;;;;;0.43;0.37;;;;;22.50;100430.00;;;;5125155;27;20473;-77
2022/03/19 06:19:12;;;;;;;0.47;0.47;;;;;22.20;100419.00;;;;5128913;28;20031;-77
2022/03/19 06:21:42;;;;;;;0.70;0.70;;;;;22.00;100427.00;;;;5134430;28;20041;-77
2022/03/19 06:24:18;;;;;;;0.00;0.00;;;;;21.90;100421.00;;;;5134562;28;20050;-77
2022/03/19 06:26:48;;;;;;;0.22;0.03;;;;;21.80;100433.00;;;;5122093;28;20032;-77
2022/03/19 06:29:18;;;;;;;7.88;2.05;;;;;21.70;100454.00;;;;5129964;28;20024;-77
2022/03/19 06:31:48;;;;;;;0.32;0.20;;;;;21.50;100439.00;;;;5144749;27;20042;-77
2022/03/19 06:34:18;;;;;;;0.28;0.28;;;;;21.40;100445.00;;;;5108717;28;20039;-77
2022/03/19 06:39:35;;;;;;;0.85;0.38;;;;;21.10;100450.00;;;;5108661;28;20039;-77
2022/03/19 06:42:05;;;;;;;0.25;0.25;;;;;21.10;100439.00;;;;5123655;27;20048;-80
2022/03/19 06:44:35;;;;;;;0.05;0.05;;;;;21.00;100449.00;;;;5107995;28;20050;-76
2022/03/19 06:47:06;;;;;;;2.40;0.45;;;;;21.00;100457.00;;;;5105957;28;20054;-78
2022/03/19 06:49:36;;;;;;;0.65;0.65;;;;;20.90;100444.00;;;;5107476;28;20027;-77
2022/03/19 06:52:05;;;;;;;0.15;0.15;;;;;20.90;100452.00;;;;5107572;28;20095;-78
2022/03/19 06:54:35;;;;;;;6.05;3.28;;;;;20.80;100463.00;;;;5108211;28;20054;-77
2022/03/19 06:57:04;;;;;;;0.00;0.00;;;;;20.70;100448.00;;;;5106405;28;20043;-77
2022/03/19 06:59:34;;;;;;;0.30;0.30;;;;;20.70;100449.00;;;;5089636;28;20052;-77
2022/03/19 07:02:04;;;;;;;0.13;0.13;;;;;20.70;100456.00;;;;5107230;28;20044;-77
2022/03/19 07:04:33;;;;;;;0.30;0.30;;;;;20.60;100461.00;;;;5107778;28;20134;-77
2022/03/19 07:07:05;;;;;;;0.10;0.10;;;;;20.50;100460.00;;;;5106671;28;20044;-77
2022/03/19 07:09:35;;;;;;;0.17;0.17;;;;;20.50;100472.00;;;;5106039;28;20395;-77
2022/03/19 07:12:06;;;;;;;0.40;0.40;;;;;20.50;100487.00;;;;5106514;28;20047;-77
2022/03/19 07:14:36;;;;;;;0.15;0.15;;;;;20.40;100479.00;;;;5105854;28;20513;-77
2022/03/19 07:17:05;;;;;;;0.65;0.20;;;;;20.40;100464.00;;;;5104321;28;20066;-77
2022/03/19 07:19:35;;;;;;;0.00;0.00;;;;;20.30;100470.00;;;;5106211;28;20049;-77
2022/03/19 07:22:05;;;;;;;0.00;0.00;;;;;20.30;100487.00;;;;5105310;28;20039;-77
2022/03/19 07:24:36;;;;;;;0.00;0.00;;;;;20.30;100481.00;;;;5105453;28;20047;-78
2022/03/19 07:27:06;;;;;;;0.65;0.10;;;;;20.20;100488.00;;;;5105116;28;20123;-78
2022/03/19 07:29:35;;;;;;;0.00;0.00;;;;;20.20;100476.00;;;;5121283;27;20044;-77
2022/03/19 07:32:05;;;;;;;2.08;0.60;;;;;20.20;100499.00;;;;5123125;27;20103;-78
2022/03/19 07:34:39;;;;;;;0.00;0.00;;;;;20.10;100493.00;;;;5107509;28;20169;-76
2022/03/19 07:37:08;;;;;;;;;;;;;20.10;100503.00;;;;5107687;28;20048;-77
2022/03/19 07:39:38;;;;;;;0.90;0.17;;;;;20.00;100482.00;;;;5106687;28;19924;-77
2022/03/19 07:42:09;;;;;;;0.80;0.32;;;;;20.00;100473.00;;;;5123298;27;20039;-77
2022/03/19 07:44:38;;;;;;;0.00;0.00;;;;;20.00;100508.00;;;;5107012;28;20081;-78
2022/03/19 07:47:08;;;;;;;0.70;0.65;;;;;20.00;100504.00;;;;5106845;28;20035;-77
2022/03/19 07:49:39;;;;;;;0.00;0.00;;;;;19.90;100517.00;;;;5121752;27;20126;-77
2022/03/19 07:52:10;;;;;;;0.00;0.00;;;;;19.90;100520.00;;;;5122017;27;20151;-78
2022/03/19 07:54:40;;;;;;;0.10;0.10;;;;;19.80;100515.00;;;;5106653;28;20471;-77
2022/03/19 07:57:11;;;;;;;0.13;0.13;;;;;19.80;100514.00;;;;5107376;28;20460;-77
2022/03/19 07:59:41;;;;;;;0.10;0.10;;;;;19.70;100533.00;;;;5106588;28;20039;-77
2022/03/19 08:02:11;;;;;;;0.00;0.00;;;;;19.70;100518.00;;;;5107355;28;20122;-78
2022/03/19 08:04:42;;;;;;;0.00;0.00;;;;;19.70;100533.00;;;;5106059;28;20131;-78
2022/03/19 08:07:12;;;;;;;0.00;0.00;;;;;19.60;100514.00;;;;5105308;28;20064;-77
2022/03/19 08:09:42;;;;;;;0.00;0.00;;;;;19.60;100545.00;;;;5125641;27;20047;-77
2022/03/19 08:12:11;;;;;;;10.95;0.20;;;;;19.60;100545.00;;;;5111401;28;20050;-77
2022/03/19 08:14:41;;;;;;;0.00;0.00;;;;;19.50;100539.00;;;;5108928;28;20055;-76
2022/03/19 08:17:12;;;;;;;0.00;0.00;;;;;19.50;100552.00;;;;5110905;28;20144;-78
2022/03/19 08:19:45;;;;;;;0.10;0.00;;;;;19.50;100570.00;;;;5109300;28;20437;-77
2022/03/19 08:22:30;;;;;;;0.00;0.00;;;;;19.40;100586.00;;;;5124234;27;20077;-78
2022/03/19 08:25:01;;;;;;;0.20;0.10;;;;;19.40;100596.00;;;;5109857;28;20039;-78
2022/03/19 08:27:30;;;;;;;0.00;0.00;;;;;19.30;100599.00;;;;5109979;27;20051;-78
2022/03/19 08:30:02;;;;;;;0.00;0.00;;;;;19.30;100605.00;;;;5110358;28;20047;-77
2022/03/19 08:32:32;;;;;;;0.00;0.00;;;;;19.20;100602.00;;;;5109842;28;20043;-77
2022/03/19 08:35:02;;;;;;;0.00;0.00;;;;;19.20;100606.00;;;;5110778;28;20051;-77
2022/03/19 08:37:32;;;;;;;0.00;0.00;;;;;19.10;100610.00;;;;5110085;28;20047;-78
2022/03/19 08:40:18;;;;;;;0.00;0.00;;;;;19.10;100605.00;;;;5108843;28;20429;-77
2022/03/19 08:42:53;;;;;;;0.00;0.00;;;;;19.00;100591.00;;;;5110755;28;20454;-77
2022/03/19 08:45:23;;;;;;;0.00;0.00;;;;;19.00;100614.00;;;;5110684;28;20047;-77
2022/03/19 08:47:52;;;;;;;0.00;0.00;;;;;19.00;100606.00;;;;5125453;27;20039;-77
2022/03/19 08:50:22;;;;;;;0.00;0.00;;;;;18.90;100610.00;;;;5108703;28;20506;-77
2022/03/19 08:52:52;;;;;;;0.00;0.00;;;;;19.00;100630.00;;;;5110388;28;20044;-77
2022/03/19 08:55:21;;;;;;;0.00;0.00;;;;;19.00;100637.00;;;;5109723;28;20064;-77
2022/03/19 08:57:51;;;;;;;0.00;0.00;;;;;18.90;100633.00;;;;5110362;28;20474;-77
2022/03/19 09:00:20;;;;;;;0.00;0.00;;;;;18.80;100666.00;;;;5109018;28;20062;-77
2022/03/19 09:02:50;;;;;;;0.00;0.00;;;;;18.70;100658.00;;;;5110372;28;20051;-77
2022/03/19 09:05:20;;;;;;;0.00;0.00;;;;;18.70;100658.00;;;;5109776;28;20048;-77
2022/03/19 09:07:49;;;;;;;0.00;0.00;;;;;18.70;100676.00;;;;5109651;28;20051;-77
2022/03/19 09:10:19;;;;;;;0.00;0.00;;;;;18.70;100667.00;;;;5110094;27;20040;-76
2022/03/19 09:12:48;;;;;;;0.00;0.00;;;;;18.70;100693.00;;;;5110227;28;20043;-76
2022/03/19 09:15:18;;;;;;;0.00;0.00;;;;;18.60;100685.00;;;;5108056;28;20048;-77
2022/03/19 09:17:47;;;;;;;0.00;0.00;;;;;18.70;100682.00;;;;5125173;27;20059;-77
2022/03/19 09:20:16;;;;;;;0.00;0.00;;;;;18.70;100685.00;;;;5109258;28;20044;-78
2022/03/19 09:22:46;;;;;;;0.00;0.00;;;;;18.70;100720.00;;;;5124944;27;20086;-79
2022/03/19 09:25:16;;;;;;;0.00;0.00;;;;;18.70;100714.00;;;;5124732;27;20056;-78
2022/03/19 09:27:45;;;;;;;0.00;0.00;;;;;18.80;100724.00;;;;5124895;27;20489;-78
2022/03/19 09:30:14;;;;;;;0.00;0.00;;;;;18.80;100721.00;;;;5109746;28;20050;-77
2022/03/19 09:32:44;;;;;;;0.00;0.00;;;;;18.80;100710.00;;;;5108336;28;20051;-78
2022/03/19 09:35:34;;;;;;;0.00;0.00;;;;;18.90;100730.00;;;;5109743;28;20150;-78
2022/03/19 09:38:04;;;;;;;0.00;0.00;;;;;18.90;100721.00;;;;5109555;28;20135;-77
2022/03/19 09:40:34;;;;;;;0.00;0.00;;;;;18.90;100729.00;;;;5108227;28;20054;-77
2022/03/19 09:43:03;;;;;;;0.00;0.00;;;;;18.90;100720.00;;;;5109181;28;20051;-78
2022/03/19 09:45:34;;;;;;;0.00;0.00;;;;;18.90;100733.00;;;;5107467;27;20510;-77
2022/03/19 09:48:03;;;;;;;0.00;0.00;;;;;18.90;100757.00;;;;5109860;28;20070;-78
2022/03/19 09:50:37;;;;;;;0.00;0.00;;;;;18.90;100749.00;;;;5108613;28;20071;-77
2022/03/19 09:53:08;;;;;;;0.00;0.00;;;;;18.80;100755.00;;;;5124864;27;20423;-77
2022/03/19 09:55:39;;;;;;;;;;;;;18.70;100766.00;;;;5108778;28;20493;-78
2022/03/19 09:58:09;;;;;;;0.00;0.00;;;;;18.50;100784.00;;;;5107784;28;19919;-78
2022/03/19 10:00:40;;;;;;;0.00;0.00;;;;;18.40;100760.00;;;;5108370;28;20047;-80
2022/03/19 10:03:22;;;;;;;0.00;0.00;;;;;18.10;100761.00;;;;5123523;27;20074;-80
2022/03/19 10:08:55;;;;;;;0.00;0.00;;;;;17.90;100749.00;;;;5108957;28;20036;-79
2022/03/19 10:11:34;;;;;;;0.00;0.00;;;;;18.00;100784.00;;;;5108796;28;20054;-81
2022/03/19 10:14:07;;;;;;;0.00;0.00;;;;;17.90;100794.00;;;;5108578;28;20069;-80
2022/03/19 10:16:38;;;;;;;0.00;0.00;;;;;17.90;100797.00;;;;5106798;28;20051;-80
2022/03/19 10:19:07;;;;;;;0.00;0.00;;;;;17.90;100806.00;;;;5107481;28;20131;-80
2022/03/19 10:21:41;;;;;;;0.00;0.00;;;;;17.90;100799.00;;;;5107438;28;20484;-79
2022/03/19 10:24:24;;;;;;;0.00;0.00;;;;;18.00;100800.00;;;;5123175;27;20051;-79
2022/03/19 10:26:54;;;;;;;0.00;0.00;;;;;18.20;100826.00;;;;5123037;27;20039;-83
2022/03/19 10:29:30;;;;;;;0.00;0.00;;;;;18.30;100820.00;;;;5106133;28;20062;-80
2022/03/19 10:32:03;;;;;;;0.00;0.00;;;;;18.30;100830.00;;;;5105690;28;20071;-79
2022/03/19 10:34:34;;;;;;;0.00;0.00;;;;;18.30;100835.00;;;;5122237;27;20047;-81
2022/03/19 10:37:03;;;;;;;0.00;0.00;;;;;18.30;100830.00;;;;5123179;27;20048;-79
2022/03/19 10:39:33;;;;;;;0.00;0.00;;;;;18.20;100849.00;;;;5106252;28;20096;-80
2022/03/19 10:42:15;;;;;;;0.00;0.00;;;;;18.20;100858.00;;;;5123611;27;20481;-80
2022/03/19 10:44:48;;;;;;;0.00;0.00;;;;;18.30;100854.00;;;;5107464;27;20048;-80
2022/03/19 10:47:23;;;;;;;0.00;0.00;;;;;18.20;100863.00;;;;5108172;27;20044;-80
2022/03/19 10:50:00;;;;;;;0.00;0.00;;;;;18.20;100858.00;;;;5107708;28;20054;-80
2022/03/19 10:52:30;;;;;;;0.00;0.00;;;;;18.10;100869.00;;;;5107534;28;20131;-79
2022/03/19 10:55:03;;;;;;;0.00;0.00;;;;;18.30;100825.00;;;;5107867;28;20046;-81
2022/03/19 10:57:33;;;;;;;0.00;0.00;;;;;18.40;100861.00;;;;5106951;28;20050;-80
2022/03/19 11:00:03;;;;;;;0.00;0.00;;;;;18.50;100872.00;;;;5105864;28;20044;-79
2022/03/19 11:02:33;;;;;;;0.00;0.00;;;;;18.50;100856.00;;;;5107534;28;20036;-80
2022/03/19 11:05:05;;;;;;;0.00;0.00;;;;;18.30;100859.00;;;;5107771;28;20291;-80
2022/03/19 11:07:37;;;;;;;0.00;0.00;;;;;18.30;100886.00;;;;5122603;27;20542;-81
2022/03/19 11:10:08;;;;;;;0.00;0.00;;;;;18.10;100877.00;;;;5107710;28;20084;-80
2022/03/19 11:12:42;;;;;;;0.00;0.00;;;;;18.00;100903.00;;;;5106057;28;20040;-80
2022/03/19 11:15:13;;;;;;;0.00;0.00;;;;;18.10;100898.00;;;;5105737;28;20043;-80
2022/03/19 11:17:45;;;;;;;0.00;0.00;;;;;18.10;100864.00;;;;5107860;28;20056;-81
2022/03/19 11:20:15;;;;;;;0.00;0.00;;;;;18.10;100873.00;;;;5106204;27;20047;-81
2022/03/19 11:22:44;;;;;;;0.00;0.00;;;;;18.20;100920.00;;;;5106871;28;20442;-80
2022/03/19 11:25:37;;;;;;;0.00;0.00;;;;;18.10;100919.00;;;;5107165;28;20043;-81
2022/03/19 11:28:11;;;;;;;0.00;0.00;;;;;18.00;100903.00;;;;5123071;27;20043;-81
2022/03/19 11:30:45;;;;;;;0.03;0.03;;;;;17.90;100909.00;;;;5105643;28;20043;-80
2022/03/19 11:33:19;;;;;;;0.00;0.00;;;;;18.00;100927.00;;;;5107877;28;20043;-82
2022/03/19 11:35:58;;;;;;;0.00;0.00;;;;;18.20;100927.00;;;;5122846;27;20079;-81
2022/03/19 11:38:30;;;;;;;0.00;0.00;;;;;18.10;100926.00;;;;5106708;28;20044;-80
2022/03/19 11:41:00;;;;;;;0.00;0.00;;;;;18.20;100914.00;;;;5121965;27;20039;-80
2022/03/19 11:43:31;;;;;;;0.00;0.00;;;;;18.20;100925.00;;;;5106359;28;20046;-79
2022/03/19 11:46:06;;;;;;;0.00;0.00;;;;;18.30;100938.00;;;;5106923;28;20051;-80
2022/03/19 11:48:39;;;;;;;0.00;0.00;;;;;18.30;100927.00;;;;5106227;27;20170;-80
2022/03/19 11:51:33;;;;;;;0.00;0.00;;;;;18.20;100944.00;;;;5122322;27;20544;-79
2022/03/19 11:54:22;;;;;;;0.00;0.00;;;;;18.10;100954.00;;;;5106913;28;20418;-78
2022/03/19 11:56:53;;;;;;;0.00;0.00;;;;;18.20;100938.00;;;;5106908;28;20052;-82
2022/03/19 11:59:22;;;;;;;0.00;0.00;;;;;18.00;100939.00;;;;5105642;28;20073;-83
2022/03/19 12:02:00;;;;;;;0.00;0.00;;;;;17.90;100946.00;;;;5107010;28;20047;-80
2022/03/19 12:04:44;;;;;;;0.00;0.00;;;;;17.90;100957.00;;;;5122602;27;20043;-79
2022/03/19 12:07:47;;;;;;;0.00;0.00;;;;;17.90;100964.00;;;;5121779;28;20074;-80
2022/03/19 12:10:21;;;;;;;0.10;0.08;;;;;17.90;100942.00;;;;5106679;28;20059;-81
2022/03/19 12:12:51;;;;;;;0.00;0.00;;;;;18.00;100963.00;;;;5106453;28;20069;-80
2022/03/19 12:15:33;;;;;;;0.00;0.00;;;;;18.10;100968.00;;;;5106698;28;20051;-78
2022/03/19 12:18:33;;;;;;;0.00;0.00;;;;;18.00;100973.00;;;;5122053;28;20059;-79
2022/03/19 12:21:05;;;;;;;0.00;0.00;;;;;18.10;100962.00;;;;5106152;28;20044;-79
2022/03/19 12:23:53;;;;;;;0.00;0.00;;;;;18.10;100983.00;;;;5106560;28;20043;-80
2022/03/19 12:26:26;;;;;;;0.28;0.28;;;;;18.10;100946.00;;;;5121723;28;20558;-79
2022/03/19 12:29:01;;;;;;;0.00;0.00;;;;;18.00;100964.00;;;;5106219;28;20528;-79
2022/03/19 12:31:33;;;;;;;0.00;0.00;;;;;18.00;100962.00;;;;5105902;28;20135;-81
2022/03/19 12:34:05;;;;;;;0.00;0.00;;;;;18.00;100954.00;;;;5122913;28;20134;-80
2022/03/19 12:36:35;;;;;;;0.00;0.00;;;;;18.20;100962.00;;;;5105854;28;20050;-79
2022/03/19 12:39:05;;;;;;;0.00;0.00;;;;;18.10;100956.00;;;;5107015;28;20676;-79
2022/03/19 12:41:35;;;;;;;;;;;;;18.20;100980.00;;;;5106573;28;20570;-81
2022/03/19 12:44:26;;;;;;;0.00;0.00;;;;;18.30;100985.00;;;;5118731;28;20651;-81
2022/03/19 12:47:00;;;;;;;0.00;0.00;;;;;18.20;100981.00;;;;5104448;28;20043;-77